sensor_id;sensor_type;location;lat;lon;timestamp;pressure;altitude;pressure_sealevel;temperature;humidity
57234;BME280;43090;52.604;13.318;2023-02-28T00:00:08;102609.13;;;-0.91;100.00
57234;BME280;43090;52.604;13.318;2023-02-28T00:02:37;102619.66;;;-0.84;100.00
57234;BME280;43090;52.604;13.318;2023-02-28T00:05:04;102611.88;;;-0.71;100.00
57234;BME280;43090;52.604;13.318;2023-02-28T00:07:31;102619.66;;;-0.84;100.00
57234;BME280;43090;52.604;13.318;2023-02-28T00:09:58;102621.22;;;-1.13;100.00
57234;BME280;43090;52.604;13.318;2023-02-28T00:12:25;102621.16;;;-1.18;100.00
57234;BME280;43090;52.604;13.318;2023-02-28T00:14:52;102614.06;;;-1.30;100.00
57234;BME280;43090;52.604;13.318;2023-02-28T00:17:19;102621.84;;;-1.44;100.00
57234;BME280;43090;52.604;13.318;2023-02-28T00:19:48;102627.97;;;-1.42;100.00
57234;BME280;43090;52.604;13.318;2023-02-28T00:22:18;102620.03;;;-1.49;100.00
57234;BME280;43090;52.604;13.318;2023-02-28T00:24:45;102617.28;;;-1.59;100.00
57234;BME280;43090;52.604;13.318;2023-02-28T00:27:12;102618.38;;;-1.37;100.00
57234;BME280;43090;52.604;13.318;2023-02-28T00:29:38;102621.84;;;-1.42;100.00
57234;BME280;43090;52.604;13.318;2023-02-28T00:32:05;102627.03;;;-1.48;100.00
57234;BME280;43090;52.604;13.318;2023-02-28T00:34:35;102630.50;;;-1.51;100.00
57234;BME280;43090;52.604;13.318;2023-02-28T00:37:05;102633.75;;;-1.80;100.00
57234;BME280;43090;52.604;13.318;2023-02-28T00:39:35;102629.63;;;-1.53;100.00
57234;BME280;43090;52.604;13.318;2023-02-28T00:42:03;102633.69;;;-1.83;100.00
57234;BME280;43090;52.604;13.318;2023-02-28T00:44:30;102626.91;;;-1.62;100.00
57234;BME280;43090;52.604;13.318;2023-02-28T00:46:57;102629.56;;;-1.59;100.00
57234;BME280;43090;52.604;13.318;2023-02-28T00:49:24;102618.16;;;-1.61;100.00
57234;BME280;43090;52.604;13.318;2023-02-28T00:51:50;102629.53;;;-1.61;100.00
57234;BME280;43090;52.604;13.318;2023-02-28T00:54:17;102629.75;;;-2.22;100.00
57234;BME280;43090;52.604;13.318;2023-02-28T00:56:44;102633.59;;;-1.92;100.00
57234;BME280;43090;52.604;13.318;2023-02-28T00:59:12;102630.13;;;-1.88;100.00
57234;BME280;43090;52.604;13.318;2023-02-28T01:01:39;102630.38;;;-1.66;100.00
57234;BME280;43090;52.604;13.318;2023-02-28T01:04:05;102632.25;;;-1.52;100.00
57234;BME280;43090;52.604;13.318;2023-02-28T01:06:32;102633.59;;;-1.91;100.00
57234;BME280;43090;52.604;13.318;2023-02-28T01:08:59;102629.16;;;-1.96;100.00
57234;BME280;43090;52.604;13.318;2023-02-28T01:11:25;102631.97;;;-1.81;100.00
57234;BME280;43090;52.604;13.318;2023-02-28T01:13:52;102626.34;;;-2.12;100.00
57234;BME280;43090;52.604;13.318;2023-02-28T01:16:19;102627.38;;;-2.01;100.00
57234;BME280;43090;52.604;13.318;2023-02-28T01:18:45;102629.63;;;-2.31;100.00
57234;BME280;43090;52.604;13.318;2023-02-28T01:21:13;102623.72;;;-2.13;100.00
57234;BME280;43090;52.604;13.318;2023-02-28T01:23:40;102630.88;;;-2.00;100.00
57234;BME280;43090;52.604;13.318;2023-02-28T01:26:07;102625.69;;;-1.95;100.00
57234;BME280;43090;52.604;13.318;2023-02-28T01:28:34;102617.44;;;-2.26;100.00
57234;BME280;43090;52.604;13.318;2023-02-28T01:31:00;102616.78;;;-2.08;100.00
57234;BME280;43090;52.604;13.318;2023-02-28T01:33:27;102615.19;;;-1.95;100.00
57234;BME280;43090;52.604;13.318;2023-02-28T01:36:01;102611.50;;;-2.13;100.00
57234;BME280;43090;52.604;13.318;2023-02-28T01:38:28;102607.03;;;-2.17;100.00
57234;BME280;43090;52.604;13.318;2023-02-28T01:40:55;102616.91;;;-1.96;100.00
57234;BME280;43090;52.604;13.318;2023-02-28T01:43:24;102616.75;;;-2.11;100.00
57234;BME280;43090;52.604;13.318;2023-02-28T01:45:52;102614.78;;;-2.29;100.00
57234;BME280;43090;52.604;13.318;2023-02-28T01:48:19;102607.66;;;-2.38;100.00
57234;BME280;43090;52.604;13.318;2023-02-28T01:50:47;102612.00;;;-2.42;100.00
57234;BME280;43090;52.604;13.318;2023-02-28T01:53:15;102612.19;;;-2.26;100.00
57234;BME280;43090;52.604;13.318;2023-02-28T01:55:45;102619.19;;;-2.25;100.00
57234;BME280;43090;52.604;13.318;2023-02-28T01:58:12;102611.81;;;-2.56;100.00
57234;BME280;43090;52.604;13.318;2023-02-28T02:00:39;102616.63;;;-2.22;100.00
57234;BME280;43090;52.604;13.318;2023-02-28T02:03:09;102614.56;;;-2.45;100.00
57234;BME280;43090;52.604;13.318;2023-02-28T02:05:37;102607.81;;;-2.27;100.00
57234;BME280;43090;52.604;13.318;2023-02-28T02:08:05;102608.59;;;-2.35;100.00
57234;BME280;43090;52.604;13.318;2023-02-28T02:10:44;102605.03;;;-2.40;100.00
57234;BME280;43090;52.604;13.318;2023-02-28T02:13:33;102610.69;;;-2.73;100.00
57234;BME280;43090;52.604;13.318;2023-02-28T02:16:18;102612.47;;;-2.72;100.00
57234;BME280;43090;52.604;13.318;2023-02-28T02:18:53;102610.72;;;-2.70;100.00
57234;BME280;43090;52.604;13.318;2023-02-28T02:21:29;102613.56;;;-2.56;100.00
57234;BME280;43090;52.604;13.318;2023-02-28T02:24:20;102608.56;;;-2.38;100.00
57234;BME280;43090;52.604;13.318;2023-02-28T02:29:45;102603.94;;;-2.57;100.00
57234;BME280;43090;52.604;13.318;2023-02-28T02:35:11;102609.25;;;-2.53;100.00
57234;BME280;43090;52.604;13.318;2023-02-28T02:37:44;102603.22;;;-2.44;100.00
57234;BME280;43090;52.604;13.318;2023-02-28T02:40:21;102606.31;;;-2.73;100.00
57234;BME280;43090;52.604;13.318;2023-02-28T02:42:53;102604.22;;;-2.98;100.00
57234;BME280;43090;52.604;13.318;2023-02-28T02:47:49;102608.22;;;-2.64;100.00
57234;BME280;43090;52.604;13.318;2023-02-28T02:50:22;102608.31;;;-2.56;100.00
57234;BME280;43090;52.604;13.318;2023-02-28T02:52:51;102605.84;;;-2.44;100.00
57234;BME280;43090;52.604;13.318;2023-02-28T02:55:19;102609.16;;;-2.57;100.00
57234;BME280;43090;52.604;13.318;2023-02-28T02:57:47;102614.09;;;-2.80;100.00
57234;BME280;43090;52.604;13.318;2023-02-28T03:00:22;102615.00;;;-2.77;100.00
57234;BME280;43090;52.604;13.318;2023-02-28T03:03:02;102612.31;;;-2.83;100.00
57234;BME280;43090;52.604;13.318;2023-02-28T03:05:38;102613.16;;;-2.84;100.00
57234;BME280;43090;52.604;13.318;2023-02-28T03:08:07;102609.84;;;-2.74;100.00
57234;BME280;43090;52.604;13.318;2023-02-28T03:10:37;102613.06;;;-2.92;100.00
57234;BME280;43090;52.604;13.318;2023-02-28T03:18:39;102620.13;;;-2.86;100.00
57234;BME280;43090;52.604;13.318;2023-02-28T03:21:20;102620.13;;;-2.85;100.00
57234;BME280;43090;52.604;13.318;2023-02-28T03:26:41;102613.56;;;-3.16;100.00
57234;BME280;43090;52.604;13.318;2023-02-28T03:29:23;102621.34;;;-3.21;100.00
57234;BME280;43090;52.604;13.318;2023-02-28T03:32:04;102619.72;;;-3.12;100.00
57234;BME280;43090;52.604;13.318;2023-02-28T03:34:38;102630.53;;;-2.92;100.00
57234;BME280;43090;52.604;13.318;2023-02-28T03:37:11;102617.06;;;-3.15;100.00
57234;BME280;43090;52.604;13.318;2023-02-28T03:39:45;102629.47;;;-3.04;100.00
57234;BME280;43090;52.604;13.318;2023-02-28T03:42:23;102633.00;;;-3.02;100.00
57234;BME280;43090;52.604;13.318;2023-02-28T03:44:57;102626.97;;;-2.97;100.00
57234;BME280;43090;52.604;13.318;2023-02-28T03:47:39;102619.53;;;-3.23;100.00
57234;BME280;43090;52.604;13.318;2023-02-28T03:50:20;102632.50;;;-3.32;100.00
57234;BME280;43090;52.604;13.318;2023-02-28T03:52:50;102633.91;;;-2.99;100.00
57234;BME280;43090;52.604;13.318;2023-02-28T03:55:17;102631.28;;;-2.98;100.00
57234;BME280;43090;52.604;13.318;2023-02-28T03:57:53;102637.06;;;-3.19;100.00
57234;BME280;43090;52.604;13.318;2023-02-28T04:00:45;102641.78;;;-3.52;100.00
57234;BME280;43090;52.604;13.318;2023-02-28T04:03:09;102639.31;;;-3.42;100.00
57234;BME280;43090;52.604;13.318;2023-02-28T04:05:47;102633.47;;;-3.26;100.00
57234;BME280;43090;52.604;13.318;2023-02-28T04:08:15;102642.75;;;-3.46;100.00
57234;BME280;43090;52.604;13.318;2023-02-28T04:10:42;102633.41;;;-3.30;100.00
57234;BME280;43090;52.604;13.318;2023-02-28T04:13:12;102637.41;;;-3.51;100.00
57234;BME280;43090;52.604;13.318;2023-02-28T04:15:38;102640.03;;;-3.51;100.00
57234;BME280;43090;52.604;13.318;2023-02-28T04:18:05;102642.75;;;-3.45;100.00
57234;BME280;43090;52.604;13.318;2023-02-28T04:20:32;102639.31;;;-3.44;100.00
57234;BME280;43090;52.604;13.318;2023-02-28T04:23:01;102639.69;;;-3.70;100.00
57234;BME280;43090;52.604;13.318;2023-02-28T04:25:30;102643.59;;;-3.47;100.00
57234;BME280;43090;52.604;13.318;2023-02-28T04:28:00;102637.75;;;-3.80;100.00
57234;BME280;43090;52.604;13.318;2023-02-28T04:30:28;102643.28;;;-3.64;100.00
57234;BME280;43090;52.604;13.318;2023-02-28T04:32:58;102647.59;;;-3.66;100.00
57234;BME280;43090;52.604;13.318;2023-02-28T04:35:35;102646.66;;;-3.72;100.00
57234;BME280;43090;52.604;13.318;2023-02-28T04:38:07;102641.50;;;-3.65;100.00
57234;BME280;43090;52.604;13.318;2023-02-28T04:40:36;102649.13;;;-3.79;100.00
57234;BME280;43090;52.604;13.318;2023-02-28T04:43:06;102643.75;;;-3.86;100.00
57234;BME280;43090;52.604;13.318;2023-02-28T04:45:35;102642.06;;;-3.83;100.00
57234;BME280;43090;52.604;13.318;2023-02-28T04:48:08;102645.69;;;-3.75;100.00
57234;BME280;43090;52.604;13.318;2023-02-28T04:50:39;102648.91;;;-3.90;100.00
57234;BME280;43090;52.604;13.318;2023-02-28T04:53:07;102648.13;;;-3.86;100.00
57234;BME280;43090;52.604;13.318;2023-02-28T04:55:34;102640.03;;;-3.97;100.00
57234;BME280;43090;52.604;13.318;2023-02-28T04:58:03;102651.44;;;-3.95;100.00
57234;BME280;43090;52.604;13.318;2023-02-28T05:00:30;102651.97;;;-4.11;100.00
57234;BME280;43090;52.604;13.318;2023-02-28T05:02:59;102652.81;;;-4.14;100.00
57234;BME280;43090;52.604;13.318;2023-02-28T05:05:29;102655.47;;;-4.11;100.00
57234;BME280;43090;52.604;13.318;2023-02-28T05:07:57;102657.53;;;-3.94;100.00
57234;BME280;43090;52.604;13.318;2023-02-28T05:10:24;102659.88;;;-4.08;100.00
57234;BME280;43090;52.604;13.318;2023-02-28T05:12:51;102663.28;;;-4.14;100.00
57234;BME280;43090;52.604;13.318;2023-02-28T05:15:17;102657.13;;;-3.72;100.00
57234;BME280;43090;52.604;13.318;2023-02-28T05:17:47;102658.72;;;-4.23;100.00
57234;BME280;43090;52.604;13.318;2023-02-28T05:20:13;102664.00;;;-4.20;100.00
57234;BME280;43090;52.604;13.318;2023-02-28T05:22:53;102666.28;;;-3.94;100.00
57234;BME280;43090;52.604;13.318;2023-02-28T05:25:21;102670.03;;;-4.22;100.00
57234;BME280;43090;52.604;13.318;2023-02-28T05:27:54;102670.13;;;-4.19;100.00
57234;BME280;43090;52.604;13.318;2023-02-28T05:30:21;102670.84;;;-3.83;100.00
57234;BME280;43090;52.604;13.318;2023-02-28T05:32:49;102670.56;;;-3.97;100.00
57234;BME280;43090;52.604;13.318;2023-02-28T05:35:17;102669.69;;;-3.98;100.00
57234;BME280;43090;52.604;13.318;2023-02-28T05:37:43;102671.84;;;-4.20;100.00
57234;BME280;43090;52.604;13.318;2023-02-28T05:40:10;102666.69;;;-4.16;100.00
57234;BME280;43090;52.604;13.318;2023-02-28T05:42:37;102669.47;;;-4.09;100.00
57234;BME280;43090;52.604;13.318;2023-02-28T05:45:07;102673.84;;;-4.08;100.00
57234;BME280;43090;52.604;13.318;2023-02-28T05:47:45;102673.41;;;-4.28;100.00
57234;BME280;43090;52.604;13.318;2023-02-28T05:50:11;102678.97;;;-4.14;100.00
57234;BME280;43090;52.604;13.318;2023-02-28T05:52:38;102681.88;;;-3.98;100.00
57234;BME280;43090;52.604;13.318;2023-02-28T05:55:05;102687.97;;;-3.99;100.00
57234;BME280;43090;52.604;13.318;2023-02-28T05:57:34;102688.72;;;-4.05;100.00
57234;BME280;43090;52.604;13.318;2023-02-28T06:00:03;102685.75;;;-4.22;100.00
57234;BME280;43090;52.604;13.318;2023-02-28T06:02:39;102618.53;;;-4.68;100.00
57234;BME280;43090;52.604;13.318;2023-02-28T06:05:17;102682.47;;;-4.12;100.00
57234;BME280;43090;52.604;13.318;2023-02-28T06:07:46;102685.53;;;-4.31;100.00
57234;BME280;43090;52.604;13.318;2023-02-28T06:10:16;102684.19;;;-4.14;100.00
57234;BME280;43090;52.604;13.318;2023-02-28T06:12:46;102687.66;;;-4.15;100.00
57234;BME280;43090;52.604;13.318;2023-02-28T06:15:14;102695.09;;;-3.92;100.00
57234;BME280;43090;52.604;13.318;2023-02-28T06:17:41;102693.28;;;-3.96;100.00
57234;BME280;43090;52.604;13.318;2023-02-28T06:20:09;102691.31;;;-4.07;100.00
57234;BME280;43090;52.604;13.318;2023-02-28T06:22:42;102696.69;;;-4.00;100.00
57234;BME280;43090;52.604;13.318;2023-02-28T06:25:09;102701.78;;;-4.07;100.00
57234;BME280;43090;52.604;13.318;2023-02-28T06:27:36;102696.47;;;-4.11;100.00
57234;BME280;43090;52.604;13.318;2023-02-28T06:30:12;102702.81;;;-3.98;100.00
57234;BME280;43090;52.604;13.318;2023-02-28T06:32:45;102703.50;;;-4.09;100.00
57234;BME280;43090;52.604;13.318;2023-02-28T06:38:32;102711.13;;;-3.77;100.00
57234;BME280;43090;52.604;13.318;2023-02-28T06:41:05;102709.00;;;-3.95;100.00
57234;BME280;43090;52.604;13.318;2023-02-28T06:43:53;102707.06;;;-4.04;100.00
57234;BME280;43090;52.604;13.318;2023-02-28T06:46:20;102719.63;;;-3.87;100.00
57234;BME280;43090;52.604;13.318;2023-02-28T06:48:57;102718.03;;;-3.35;100.00
57234;BME280;43090;52.604;13.318;2023-02-28T06:51:52;102720.59;;;-3.83;100.00
57234;BME280;43090;52.604;13.318;2023-02-28T06:54:23;102725.47;;;-3.56;100.00
57234;BME280;43090;52.604;13.318;2023-02-28T06:57:59;102724.50;;;-3.61;100.00
57234;BME280;43090;52.604;13.318;2023-02-28T07:00:44;102725.94;;;-3.31;100.00
57234;BME280;43090;52.604;13.318;2023-02-28T07:03:26;102735.22;;;-3.49;100.00
57234;BME280;43090;52.604;13.318;2023-02-28T07:06:22;102741.66;;;-3.33;100.00
57234;BME280;43090;52.604;13.318;2023-02-28T07:08:52;102731.66;;;-3.05;100.00
57234;BME280;43090;52.604;13.318;2023-02-28T07:11:23;102733.34;;;-3.07;100.00
57234;BME280;43090;52.604;13.318;2023-02-28T07:14:01;102730.91;;;-2.98;100.00
57234;BME280;43090;52.604;13.318;2023-02-28T07:20:12;102733.78;;;-2.82;100.00
57234;BME280;43090;52.604;13.318;2023-02-28T07:22:47;102738.03;;;-2.89;100.00
57234;BME280;43090;52.604;13.318;2023-02-28T07:25:44;102733.38;;;-2.55;100.00
57234;BME280;43090;52.604;13.318;2023-02-28T07:28:15;102734.22;;;-2.56;100.00
57234;BME280;43090;52.604;13.318;2023-02-28T07:30:42;102738.47;;;-2.63;100.00
57234;BME280;43090;52.604;13.318;2023-02-28T07:33:09;102737.50;;;-2.70;100.00
57234;BME280;43090;52.604;13.318;2023-02-28T07:35:37;102732.13;;;-2.21;100.00
57234;BME280;43090;52.604;13.318;2023-02-28T07:38:13;102743.69;;;-2.06;100.00
57234;BME280;43090;52.604;13.318;2023-02-28T07:40:52;102733.09;;;-2.14;100.00
57234;BME280;43090;52.604;13.318;2023-02-28T07:43:54;102736.00;;;-1.89;100.00
57234;BME280;43090;52.604;13.318;2023-02-28T07:47:26;102739.75;;;-1.73;100.00
57234;BME280;43090;52.604;13.318;2023-02-28T07:50:18;102737.38;;;-1.50;100.00
57234;BME280;43090;52.604;13.318;2023-02-28T07:53:36;102730.72;;;-1.17;100.00
57234;BME280;43090;52.604;13.318;2023-02-28T07:56:18;102732.56;;;-1.08;100.00
57234;BME280;43090;52.604;13.318;2023-02-28T08:23:42;102731.53;;;-0.07;99.33
57234;BME280;43090;52.604;13.318;2023-02-28T08:26:18;102727.25;;;0.15;99.73
57234;BME280;43090;52.604;13.318;2023-02-28T08:32:06;102736.97;;;0.25;91.83
57234;BME280;43090;52.604;13.318;2023-02-28T08:35:12;102736.22;;;0.68;86.47
57234;BME280;43090;52.604;13.318;2023-02-28T08:37:42;102738.84;;;0.79;86.86
57234;BME280;43090;52.604;13.318;2023-02-28T08:40:09;102731.84;;;1.04;81.42
57234;BME280;43090;52.604;13.318;2023-02-28T08:42:36;102732.75;;;1.15;83.63
57234;BME280;43090;52.604;13.318;2023-02-28T08:45:06;102733.63;;;1.22;81.60
57234;BME280;43090;52.604;13.318;2023-02-28T08:47:32;102730.09;;;1.39;80.40
57234;BME280;43090;52.604;13.318;2023-02-28T08:49:59;102735.38;;;1.45;79.69
57234;BME280;43090;52.604;13.318;2023-02-28T08:52:26;102740.53;;;2.02;76.59
57234;BME280;43090;52.604;13.318;2023-02-28T08:54:52;102742.31;;;2.08;76.49
57234;BME280;43090;52.604;13.318;2023-02-28T08:57:19;102740.56;;;1.85;72.96
57234;BME280;43090;52.604;13.318;2023-02-28T09:00:07;102745.72;;;2.28;72.78
57234;BME280;43090;52.604;13.318;2023-02-28T09:02:52;102744.06;;;2.06;66.74
57234;BME280;43090;52.604;13.318;2023-02-28T09:05:23;102742.22;;;2.29;57.32
57234;BME280;43090;52.604;13.318;2023-02-28T09:07:50;102749.28;;;2.20;56.25
57234;BME280;43090;52.604;13.318;2023-02-28T09:10:19;102739.53;;;2.39;52.78
57234;BME280;43090;52.604;13.318;2023-02-28T09:12:46;102741.19;;;2.54;57.89
57234;BME280;43090;52.604;13.318;2023-02-28T09:15:13;102748.34;;;2.38;51.89
57234;BME280;43090;52.604;13.318;2023-02-28T09:17:39;102747.44;;;2.39;53.14
57234;BME280;43090;52.604;13.318;2023-02-28T09:20:06;102740.44;;;2.28;48.76
57234;BME280;43090;52.604;13.318;2023-02-28T09:22:32;102742.84;;;2.73;50.43
57234;BME280;43090;52.604;13.318;2023-02-28T09:24:59;102735.59;;;3.06;54.12
57234;BME280;43090;52.604;13.318;2023-02-28T09:27:25;102750.78;;;2.75;54.17
57234;BME280;43090;52.604;13.318;2023-02-28T09:29:52;102733.91;;;2.90;53.88
57234;BME280;43090;52.604;13.318;2023-02-28T09:32:18;102740.28;;;2.62;55.56
57234;BME280;43090;52.604;13.318;2023-02-28T09:34:45;102739.28;;;2.82;55.43
57234;BME280;43090;52.604;13.318;2023-02-28T09:37:11;102731.16;;;3.10;55.07
57234;BME280;43090;52.604;13.318;2023-02-28T09:39:38;102738.22;;;3.08;49.89
57234;BME280;43090;52.604;13.318;2023-02-28T09:42:04;102735.53;;;3.14;49.39
57234;BME280;43090;52.604;13.318;2023-02-28T09:44:37;102735.59;;;3.02;48.87
57234;BME280;43090;52.604;13.318;2023-02-28T09:47:17;102736.44;;;3.07;48.40
57234;BME280;43090;52.604;13.318;2023-02-28T09:49:45;102735.72;;;2.86;49.83
57234;BME280;43090;52.604;13.318;2023-02-28T09:52:24;102740.88;;;3.02;50.73
57234;BME280;43090;52.604;13.318;2023-02-28T09:54:54;102743.78;;;2.69;47.58
57234;BME280;43090;52.604;13.318;2023-02-28T09:57:39;102735.63;;;3.00;50.86
57234;BME280;43090;52.604;13.318;2023-02-28T10:00:22;102748.84;;;3.02;49.12
57234;BME280;43090;52.604;13.318;2023-02-28T10:05:21;102746.22;;;2.98;51.47
57234;BME280;43090;52.604;13.318;2023-02-28T10:07:58;102742.72;;;2.93;47.61
57234;BME280;43090;52.604;13.318;2023-02-28T10:10:29;102742.63;;;3.09;49.59
57234;BME280;43090;52.604;13.318;2023-02-28T10:12:57;102742.63;;;3.04;46.59
57234;BME280;43090;52.604;13.318;2023-02-28T10:15:25;102738.91;;;3.30;49.50
57234;BME280;43090;52.604;13.318;2023-02-28T10:17:54;102743.16;;;3.51;48.91
57234;BME280;43090;52.604;13.318;2023-02-28T10:20:34;102744.34;;;3.14;46.56
57234;BME280;43090;52.604;13.318;2023-02-28T10:23:23;102749.63;;;3.14;48.12
57234;BME280;43090;52.604;13.318;2023-02-28T10:25:57;102741.50;;;3.38;47.89
57234;BME280;43090;52.604;13.318;2023-02-28T10:28:24;102743.22;;;3.42;49.33
57234;BME280;43090;52.604;13.318;2023-02-28T10:30:52;102752.09;;;3.34;50.50
57234;BME280;43090;52.604;13.318;2023-02-28T10:33:22;102739.44;;;3.67;51.07
57234;BME280;43090;52.604;13.318;2023-02-28T10:35:54;102744.75;;;3.66;49.77
57234;BME280;43090;52.604;13.318;2023-02-28T10:38:22;102743.75;;;3.78;46.54
57234;BME280;43090;52.604;13.318;2023-02-28T10:40:49;102742.69;;;3.96;45.03
57234;BME280;43090;52.604;13.318;2023-02-28T10:46:02;102735.88;;;3.72;47.74
57234;BME280;43090;52.604;13.318;2023-02-28T10:48:50;102736.41;;;4.06;49.61
57234;BME280;43090;52.604;13.318;2023-02-28T10:51:19;102743.84;;;3.69;47.80
57234;BME280;43090;52.604;13.318;2023-02-28T10:53:49;102731.59;;;3.61;45.72
57234;BME280;43090;52.604;13.318;2023-02-28T10:56:27;102730.84;;;3.45;45.23
57234;BME280;43090;52.604;13.318;2023-02-28T11:03:57;102718.25;;;3.71;46.57
57234;BME280;43090;52.604;13.318;2023-02-28T11:06:33;102718.69;;;3.20;46.29
57234;BME280;43090;52.604;13.318;2023-02-28T11:09:01;102706.81;;;3.62;51.42
57234;BME280;43090;52.604;13.318;2023-02-28T11:11:29;102704.88;;;3.81;48.10
57234;BME280;43090;52.604;13.318;2023-02-28T11:14:03;102702.28;;;3.74;46.71
57234;BME280;43090;52.604;13.318;2023-02-28T11:16:34;102705.00;;;3.71;45.88
57234;BME280;43090;52.604;13.318;2023-02-28T11:19:14;102696.13;;;3.73;46.71
57234;BME280;43090;52.604;13.318;2023-02-28T11:21:52;102688.41;;;4.26;50.31
57234;BME280;43090;52.604;13.318;2023-02-28T11:27:00;102695.03;;;3.91;45.88
57234;BME280;43090;52.604;13.318;2023-02-28T11:32:59;102696.00;;;3.84;46.58
57234;BME280;43090;52.604;13.318;2023-02-28T11:35:49;102699.44;;;3.92;46.96
57234;BME280;43090;52.604;13.318;2023-02-28T11:38:16;102689.91;;;3.77;45.90
57234;BME280;43090;52.604;13.318;2023-02-28T11:40:47;102691.19;;;4.17;44.68
57234;BME280;43090;52.604;13.318;2023-02-28T11:54:04;102696.41;;;4.25;45.93
57234;BME280;43090;52.604;13.318;2023-02-28T11:56:43;102696.13;;;4.45;46.74
57234;BME280;43090;52.604;13.318;2023-02-28T12:02:06;102690.84;;;4.42;49.47
57234;BME280;43090;52.604;13.318;2023-02-28T12:04:51;102693.59;;;4.36;48.26
57234;BME280;43090;52.604;13.318;2023-02-28T12:10:21;102689.09;;;4.41;48.12
57234;BME280;43090;52.604;13.318;2023-02-28T12:13:19;102683.41;;;4.69;48.13
57234;BME280;43090;52.604;13.318;2023-02-28T12:15:53;102683.47;;;4.62;47.43
57234;BME280;43090;52.604;13.318;2023-02-28T12:19:26;102683.34;;;4.72;46.15
57234;BME280;43090;52.604;13.318;2023-02-28T12:21:27;102680.38;;;4.34;44.04
57234;BME280;43090;52.604;13.318;2023-02-28T12:26:39;102667.66;;;4.56;44.21
57234;BME280;43090;52.604;13.318;2023-02-28T12:29:17;102667.97;;;4.34;45.11
57234;BME280;43090;52.604;13.318;2023-02-28T12:31:48;102659.91;;;4.42;43.88
57234;BME280;43090;52.604;13.318;2023-02-28T12:34:17;102658.25;;;4.33;43.79
57234;BME280;43090;52.604;13.318;2023-02-28T12:36:46;102652.41;;;4.71;43.67
57234;BME280;43090;52.604;13.318;2023-02-28T12:39:18;102650.19;;;4.41;44.78
57234;BME280;43090;52.604;13.318;2023-02-28T12:42:02;102647.88;;;4.18;44.85
57234;BME280;43090;52.604;13.318;2023-02-28T12:44:32;102644.34;;;4.17;46.07
57234;BME280;43090;52.604;13.318;2023-02-28T12:47:02;102623.66;;;4.41;46.70
57234;BME280;43090;52.604;13.318;2023-02-28T12:49:32;102626.09;;;4.57;43.88
57234;BME280;43090;52.604;13.318;2023-02-28T12:52:00;102620.03;;;4.47;48.41
57234;BME280;43090;52.604;13.318;2023-02-28T12:57:14;102621.78;;;4.48;43.66
57234;BME280;43090;52.604;13.318;2023-02-28T12:59:46;102613.09;;;4.40;46.25
57234;BME280;43090;52.604;13.318;2023-02-28T13:05:02;102611.28;;;4.42;45.52
57234;BME280;43090;52.604;13.318;2023-02-28T13:07:59;102598.53;;;4.65;43.77
57234;BME280;43090;52.604;13.318;2023-02-28T13:10:40;102607.34;;;4.67;42.96
57234;BME280;43090;52.604;13.318;2023-02-28T13:13:13;102597.41;;;4.79;44.02
57234;BME280;43090;52.604;13.318;2023-02-28T13:15:40;102599.00;;;4.89;47.53
57234;BME280;43090;52.604;13.318;2023-02-28T13:18:26;102593.50;;;5.02;42.61
57234;BME280;43090;52.604;13.318;2023-02-28T13:20:56;102599.34;;;4.69;43.63
57234;BME280;43090;52.604;13.318;2023-02-28T13:23:40;102602.09;;;4.64;44.43
57234;BME280;43090;52.604;13.318;2023-02-28T13:26:07;102590.69;;;5.11;45.07
57234;BME280;43090;52.604;13.318;2023-02-28T13:31:17;102592.09;;;4.79;43.69
57234;BME280;43090;52.604;13.318;2023-02-28T13:38:41;102598.91;;;4.95;43.52
57234;BME280;43090;52.604;13.318;2023-02-28T13:52:31;102595.22;;;5.03;42.30
57234;BME280;43090;52.604;13.318;2023-02-28T13:54:56;102588.19;;;5.02;45.09
57234;BME280;43090;52.604;13.318;2023-02-28T14:00:17;102579.00;;;4.70;44.14
57234;BME280;43090;52.604;13.318;2023-02-28T14:05:16;102574.84;;;5.05;43.67
57234;BME280;43090;52.604;13.318;2023-02-28T14:07:45;102573.22;;;4.96;45.79
57234;BME280;43090;52.604;13.318;2023-02-28T14:10:31;102573.31;;;4.91;43.65
57234;BME280;43090;52.604;13.318;2023-02-28T14:15:57;102573.91;;;5.07;44.71
57234;BME280;43090;52.604;13.318;2023-02-28T14:28:05;102568.06;;;4.88;43.12
57234;BME280;43090;52.604;13.318;2023-02-28T14:30:45;102567.09;;;4.94;44.10
57234;BME280;43090;52.604;13.318;2023-02-28T14:41:23;102559.44;;;5.25;48.08
57234;BME280;43090;52.604;13.318;2023-02-28T14:50:34;102569.78;;;4.92;43.49
57234;BME280;43090;52.604;13.318;2023-02-28T14:53:03;102566.59;;;5.18;43.25
57234;BME280;43090;52.604;13.318;2023-02-28T14:55:35;102558.63;;;5.20;47.63
57234;BME280;43090;52.604;13.318;2023-02-28T14:58:03;102554.13;;;5.24;47.62
57234;BME280;43090;52.604;13.318;2023-02-28T15:04:38;102557.13;;;5.05;45.15
57234;BME280;43090;52.604;13.318;2023-02-28T15:07:24;102552.41;;;4.73;44.38
57234;BME280;43090;52.604;13.318;2023-02-28T15:14:03;102548.63;;;4.86;44.75
57234;BME280;43090;52.604;13.318;2023-02-28T15:27:14;102542.63;;;4.75;46.85
57234;BME280;43090;52.604;13.318;2023-02-28T15:29:46;102543.50;;;4.77;45.64
57234;BME280;43090;52.604;13.318;2023-02-28T15:43:13;102543.22;;;4.92;45.39
57234;BME280;43090;52.604;13.318;2023-02-28T15:46:18;102536.44;;;4.76;50.29
57234;BME280;43090;52.604;13.318;2023-02-28T16:17:02;102551.38;;;2.91;56.75
57234;BME280;43090;52.604;13.318;2023-02-28T16:23:51;102550.59;;;2.78;60.16
57234;BME280;43090;52.604;13.318;2023-02-28T16:26:20;102548.97;;;2.63;62.28
57234;BME280;43090;52.604;13.318;2023-02-28T16:28:49;102559.44;;;2.76;60.12
57234;BME280;43090;52.604;13.318;2023-02-28T16:31:17;102556.81;;;2.71;59.67